createdAt,value
2018-09-11T00:01:33.158Z,18.00
2018-09-11T00:04:01.539Z,18.00
2018-09-11T00:06:29.883Z,18.00
2018-09-11T00:08:58.247Z,18.00
2018-09-11T00:11:27.213Z,18.00
2018-09-11T00:13:55.583Z,18.00
2018-09-11T00:16:23.904Z,17.90
2018-09-11T00:18:52.276Z,17.90
2018-09-11T00:21:20.624Z,17.90
2018-09-11T00:23:49.001Z,17.90
2018-09-11T00:26:17.335Z,17.80
2018-09-11T00:28:45.732Z,17.80
2018-09-11T00:31:14.059Z,17.80
2018-09-11T00:33:42.439Z,17.70
2018-09-11T00:36:10.834Z,17.70
2018-09-11T00:38:39.204Z,17.70
2018-09-11T00:41:07.638Z,17.70
2018-09-11T00:43:36.032Z,17.70
2018-09-11T00:46:04.372Z,17.70
2018-09-11T00:48:32.720Z,17.70
2018-09-11T00:51:01.219Z,17.70
2018-09-11T00:53:29.605Z,17.70
2018-09-11T00:55:57.964Z,17.60
2018-09-11T00:58:26.389Z,17.60
2018-09-11T01:00:54.911Z,17.60
2018-09-11T01:03:23.244Z,17.60
2018-09-11T01:05:51.589Z,17.60
2018-09-11T01:08:19.912Z,17.60
2018-09-11T01:10:48.259Z,17.60
2018-09-11T01:13:16.908Z,17.60
2018-09-11T01:15:45.248Z,17.60
2018-09-11T01:18:13.560Z,17.50
2018-09-11T01:20:41.927Z,17.50
2018-09-11T01:23:10.261Z,17.50
2018-09-11T01:25:38.616Z,17.50
2018-09-11T01:28:06.924Z,17.50
2018-09-11T01:30:35.291Z,17.50
2018-09-11T01:33:03.609Z,17.50
2018-09-11T01:35:31.943Z,17.50
2018-09-11T01:38:00.255Z,17.50
2018-09-11T01:40:28.619Z,17.40
2018-09-11T01:42:56.939Z,17.40
2018-09-11T01:45:25.310Z,17.40
2018-09-11T01:47:53.712Z,17.40
2018-09-11T01:50:22.141Z,17.40
2018-09-11T01:52:50.692Z,17.40
2018-09-11T01:55:19.037Z,17.40
2018-09-11T01:57:47.423Z,17.40
2018-09-11T02:00:17.343Z,17.40
2018-09-11T02:02:46.415Z,17.40
2018-09-11T02:05:14.778Z,17.40
2018-09-11T02:07:43.915Z,17.40
2018-09-11T02:10:12.636Z,17.40
2018-09-11T02:12:40.959Z,17.40
2018-09-11T02:15:10.230Z,17.30
2018-09-11T02:17:38.856Z,17.30
2018-09-11T02:20:07.255Z,17.30
2018-09-11T02:22:35.573Z,17.30
2018-09-11T02:25:03.983Z,17.30
2018-09-11T02:27:32.368Z,17.20
2018-09-11T02:30:00.737Z,17.20
2018-09-11T02:32:29.068Z,17.20
2018-09-11T02:34:57.485Z,17.20
2018-09-11T02:37:25.971Z,17.20
2018-09-11T02:39:54.324Z,17.20
2018-09-11T02:42:22.655Z,17.10
2018-09-11T02:44:51.020Z,17.20
2018-09-11T02:47:19.346Z,17.10
2018-09-11T02:49:47.728Z,17.10
2018-09-11T02:52:16.056Z,17.10
2018-09-11T02:54:44.479Z,17.10
2018-09-11T02:57:12.811Z,17.10
2018-09-11T02:59:41.159Z,17.10
2018-09-11T03:02:09.496Z,17.00
2018-09-11T03:04:37.892Z,17.00
2018-09-11T03:07:06.239Z,17.00
2018-09-11T03:09:34.585Z,17.00
2018-09-11T03:12:03.001Z,17.00
2018-09-11T03:14:31.400Z,17.00
2018-09-11T03:16:59.756Z,17.00
2018-09-11T03:19:28.116Z,17.00
2018-09-11T03:21:56.427Z,17.00
2018-09-11T03:24:24.783Z,17.00
2018-09-11T03:26:53.111Z,17.00
2018-09-11T03:29:21.461Z,17.00
2018-09-11T03:31:49.824Z,17.00
2018-09-11T03:34:18.156Z,17.00
2018-09-11T03:36:46.507Z,17.00
2018-09-11T03:39:15.045Z,17.00
2018-09-11T03:41:43.403Z,17.00
2018-09-11T03:44:11.747Z,17.00
2018-09-11T03:46:40.113Z,17.00
2018-09-11T03:49:08.464Z,17.00
2018-09-11T03:51:36.803Z,17.10
2018-09-11T03:54:05.112Z,17.10
2018-09-11T03:56:33.468Z,17.00
2018-09-11T03:59:01.782Z,17.00
2018-09-11T04:01:30.131Z,17.00
2018-09-11T04:03:58.454Z,17.00
2018-09-11T04:06:26.825Z,17.00
2018-09-11T04:08:55.171Z,17.00
2018-09-11T04:11:23.528Z,17.00
2018-09-11T04:13:51.839Z,17.00
2018-09-11T04:16:20.204Z,16.90
2018-09-11T04:18:48.900Z,16.90
2018-09-11T04:21:17.252Z,16.90
2018-09-11T04:23:45.580Z,16.90
2018-09-11T04:26:13.956Z,16.90
2018-09-11T04:28:42.420Z,16.90
2018-09-11T04:31:10.780Z,16.90
2018-09-11T04:33:39.169Z,16.90
2018-09-11T04:36:07.519Z,16.90
2018-09-11T04:38:35.873Z,16.80
2018-09-11T04:41:04.305Z,16.80
2018-09-11T04:43:32.675Z,16.80
2018-09-11T04:46:01.050Z,16.80
2018-09-11T04:48:29.395Z,16.80
2018-09-11T04:50:57.745Z,16.80
2018-09-11T04:53:26.073Z,16.80
2018-09-11T04:55:54.428Z,16.80
2018-09-11T04:58:22.749Z,16.70
2018-09-11T05:00:51.140Z,16.70
2018-09-11T05:03:19.472Z,16.70
2018-09-11T05:05:47.874Z,16.70
2018-09-11T05:08:16.204Z,16.70
2018-09-11T05:10:44.590Z,16.70
2018-09-11T05:13:12.968Z,16.70
2018-09-11T05:15:41.320Z,16.70
2018-09-11T05:18:09.655Z,16.70
2018-09-11T05:20:38.174Z,16.70
2018-09-11T05:23:06.559Z,16.70
2018-09-11T05:25:34.880Z,16.70
2018-09-11T05:28:03.236Z,16.70
2018-09-11T05:30:31.571Z,16.70
2018-09-11T05:32:59.895Z,16.70
2018-09-11T05:35:28.234Z,16.70
2018-09-11T05:37:56.583Z,16.70
2018-09-11T05:40:24.916Z,16.70
2018-09-11T05:42:53.279Z,16.70
2018-09-11T05:45:21.607Z,16.70
2018-09-11T05:47:49.951Z,16.70
2018-09-11T05:50:18.268Z,16.70
2018-09-11T05:52:46.612Z,16.70
2018-09-11T05:55:14.935Z,16.70
2018-09-11T05:57:43.335Z,16.70
2018-09-11T06:00:11.665Z,16.70
2018-09-11T06:02:40.019Z,16.80
2018-09-11T06:05:08.343Z,16.80
2018-09-11T06:07:36.686Z,16.80
2018-09-11T06:10:05.048Z,16.80
2018-09-11T06:12:33.391Z,16.80
2018-09-11T06:15:01.732Z,16.80
2018-09-11T06:17:30.117Z,16.90
2018-09-11T06:19:58.460Z,16.90
2018-09-11T06:22:26.972Z,16.90
2018-09-11T06:24:55.287Z,17.00
2018-09-11T06:27:23.614Z,17.00
2018-09-11T06:29:51.992Z,17.10
2018-09-11T06:32:20.335Z,17.20
2018-09-11T06:34:48.659Z,17.20
2018-09-11T06:37:16.999Z,17.20
2018-09-11T06:39:45.359Z,17.30
2018-09-11T06:42:13.706Z,17.30
2018-09-11T06:44:42.029Z,17.30
2018-09-11T06:47:10.449Z,17.30
2018-09-11T06:49:38.719Z,17.40
2018-09-11T06:52:07.056Z,17.40
2018-09-11T06:54:35.453Z,17.40
2018-09-11T06:57:03.776Z,17.40
2018-09-11T06:59:32.088Z,17.40
2018-09-11T07:02:00.639Z,17.50
2018-09-11T07:04:28.936Z,17.50
2018-09-11T07:06:57.312Z,17.50
2018-09-11T07:09:25.631Z,17.60
2018-09-11T07:11:53.985Z,17.60
2018-09-11T07:14:22.289Z,17.60
2018-09-11T07:16:50.671Z,17.70
2018-09-11T07:19:19.007Z,17.70
2018-09-11T07:21:47.342Z,17.80
2018-09-11T07:24:15.701Z,17.90
2018-09-11T07:26:44.060Z,17.90
2018-09-11T07:29:12.444Z,17.90
2018-09-11T07:31:40.790Z,17.90
2018-09-11T07:34:09.148Z,18.00
2018-09-11T07:36:37.473Z,18.00
2018-09-11T07:39:07.307Z,18.00
2018-09-11T07:41:35.632Z,18.10
2018-09-11T07:44:03.992Z,18.20
2018-09-11T07:46:32.320Z,18.20
2018-09-11T07:49:00.669Z,18.20
2018-09-11T07:51:29.006Z,18.20
2018-09-11T07:53:57.347Z,18.20
2018-09-11T07:56:25.673Z,18.20
2018-09-11T07:58:54.045Z,18.30
2018-09-11T08:01:22.371Z,18.40
2018-09-11T08:03:50.908Z,18.40
2018-09-11T08:06:19.256Z,18.50
2018-09-11T08:08:47.612Z,18.50
2018-09-11T08:11:15.973Z,18.60
2018-09-11T08:13:44.365Z,18.70
2018-09-11T08:16:12.688Z,18.80
2018-09-11T08:18:41.032Z,18.80
2018-09-11T08:21:09.363Z,18.70
2018-09-11T08:23:37.709Z,18.80
2018-09-11T08:26:06.683Z,18.80
2018-09-11T08:28:35.071Z,18.90
2018-09-11T08:31:03.394Z,19.00
2018-09-11T08:33:31.735Z,19.00
2018-09-11T08:36:00.058Z,19.10
2018-09-11T08:38:28.411Z,19.10
2018-09-11T08:40:56.782Z,19.30
2018-09-11T08:43:25.104Z,19.50
2018-09-11T08:45:53.427Z,19.60
2018-09-11T08:48:21.797Z,19.60
2018-09-11T08:50:50.124Z,19.60
2018-09-11T08:53:18.461Z,19.70
2018-09-11T08:55:46.773Z,19.80
2018-09-11T08:58:15.098Z,19.90
2018-09-11T09:00:43.419Z,19.90
2018-09-11T09:03:11.735Z,19.90
2018-09-11T09:05:40.219Z,19.90
2018-09-11T09:08:08.532Z,20.00
2018-09-11T09:10:36.867Z,20.00
2018-09-11T09:13:05.260Z,20.00
2018-09-11T09:15:33.632Z,20.10
2018-09-11T09:18:01.907Z,20.20
2018-09-11T09:20:30.262Z,20.40
2018-09-11T09:22:58.617Z,20.60
2018-09-11T09:25:26.960Z,20.60
2018-09-11T09:27:55.280Z,20.60
2018-09-11T09:30:23.646Z,20.70
2018-09-11T09:32:51.968Z,20.80
2018-09-11T09:35:20.312Z,20.90
2018-09-11T09:37:48.627Z,21.00
2018-09-11T09:40:17.009Z,21.10
2018-09-11T09:42:45.329Z,21.40
2018-09-11T09:45:13.680Z,21.50
2018-09-11T09:47:41.996Z,21.60
2018-09-11T09:50:10.348Z,21.70
2018-09-11T09:52:38.684Z,21.70
2018-09-11T09:55:07.035Z,21.80
2018-09-11T09:57:35.356Z,21.70
2018-09-11T10:00:03.815Z,21.80
2018-09-11T10:02:32.123Z,21.90
2018-09-11T10:05:00.508Z,21.90
2018-09-11T10:07:28.987Z,22.00
2018-09-11T10:09:57.424Z,22.10
2018-09-11T10:12:25.773Z,22.10
2018-09-11T10:14:54.119Z,22.20
2018-09-11T10:17:22.427Z,22.30
2018-09-11T10:19:50.792Z,22.40
2018-09-11T10:22:19.102Z,22.50
2018-09-11T10:24:47.441Z,22.60
2018-09-11T10:27:15.828Z,22.70
2018-09-11T10:29:44.176Z,22.80
2018-09-11T10:32:12.558Z,22.90
2018-09-11T10:34:40.894Z,23.00
2018-09-11T10:37:09.236Z,23.10
2018-09-11T10:39:37.556Z,23.30
2018-09-11T10:42:05.889Z,23.40
2018-09-11T10:44:34.217Z,23.50
2018-09-11T10:47:02.719Z,23.60
2018-09-11T10:49:31.379Z,23.60
2018-09-11T10:51:59.814Z,23.60
2018-09-11T10:54:28.112Z,23.60
2018-09-11T10:56:56.961Z,23.60
2018-09-11T10:59:25.304Z,23.60
2018-09-11T11:01:53.677Z,23.50
2018-09-11T11:04:22.028Z,23.60
2018-09-11T11:06:50.575Z,23.60
2018-09-11T11:09:18.922Z,23.70
2018-09-11T11:11:47.275Z,23.90
2018-09-11T11:14:15.597Z,23.90
2018-09-11T11:16:43.938Z,24.00
2018-09-11T11:19:12.256Z,24.20
2018-09-11T11:21:40.596Z,24.30
2018-09-11T11:24:08.912Z,24.50
2018-09-11T11:26:37.260Z,24.50
2018-09-11T11:29:05.689Z,24.60
2018-09-11T11:31:34.004Z,24.70
2018-09-11T11:34:02.346Z,24.70
2018-09-11T11:36:30.741Z,24.70
2018-09-11T11:38:59.051Z,24.80
2018-09-11T11:41:27.376Z,24.90
2018-09-11T11:43:55.726Z,24.90
2018-09-11T11:46:24.044Z,25.00
2018-09-11T11:48:52.459Z,25.00
2018-09-11T11:51:20.779Z,25.00
2018-09-11T11:53:49.096Z,25.00
2018-09-11T11:56:17.658Z,25.00
2018-09-11T11:58:45.998Z,25.20
2018-09-11T12:01:14.329Z,25.40
2018-09-11T12:03:42.712Z,25.40
2018-09-11T12:06:11.019Z,25.50
2018-09-11T12:08:39.342Z,25.50
2018-09-11T12:11:07.698Z,25.60
2018-09-11T12:13:36.093Z,25.60
2018-09-11T12:16:04.439Z,25.70
2018-09-11T12:18:33.084Z,25.80
2018-09-11T12:21:01.441Z,25.90
2018-09-11T12:23:29.828Z,26.00
2018-09-11T12:25:58.142Z,26.10
2018-09-11T12:28:26.495Z,26.10
2018-09-11T12:30:54.845Z,26.10
2018-09-11T12:33:23.146Z,26.10
2018-09-11T12:35:51.485Z,26.20
2018-09-11T12:38:19.824Z,26.30
2018-09-11T12:40:48.183Z,26.40
2018-09-11T12:43:16.488Z,26.40
2018-09-11T12:45:44.882Z,26.30
2018-09-11T12:48:13.505Z,26.30
2018-09-11T12:50:41.628Z,26.50
2018-09-11T12:53:09.939Z,26.40
2018-09-11T12:55:38.276Z,26.50
2018-09-11T12:58:06.585Z,26.60
2018-09-11T13:00:34.919Z,26.70
2018-09-11T13:03:03.229Z,26.80
2018-09-11T13:05:31.555Z,26.80
2018-09-11T13:07:59.903Z,26.80
2018-09-11T13:10:28.237Z,26.80
2018-09-11T13:12:56.538Z,26.80
2018-09-11T13:15:24.877Z,26.80
2018-09-11T13:17:53.184Z,26.80
2018-09-11T13:20:21.521Z,26.80
2018-09-11T13:22:49.834Z,27.10
2018-09-11T13:25:18.217Z,27.30
2018-09-11T13:27:46.505Z,27.40
2018-09-11T13:30:14.943Z,27.50
2018-09-11T13:32:43.256Z,27.60
2018-09-11T13:35:11.562Z,27.70
2018-09-11T13:37:39.896Z,27.90
2018-09-11T13:40:08.233Z,28.00
2018-09-11T13:42:36.575Z,28.10
2018-09-11T13:45:05.231Z,28.10
2018-09-11T13:47:33.594Z,28.10
2018-09-11T13:50:01.904Z,28.20
2018-09-11T13:52:30.462Z,28.20
2018-09-11T13:54:58.779Z,28.30
2018-09-11T13:57:27.108Z,28.40
2018-09-11T13:59:55.428Z,28.50
2018-09-11T14:02:23.773Z,28.50
2018-09-11T14:04:52.144Z,28.50
2018-09-11T14:07:20.664Z,28.50
2018-09-11T14:09:48.981Z,28.50
2018-09-11T14:12:17.363Z,28.60
2018-09-11T14:14:45.687Z,28.70
2018-09-11T14:17:14.026Z,28.60
2018-09-11T14:19:42.359Z,28.60
2018-09-11T14:22:10.702Z,28.70
2018-09-11T14:27:00.431Z,28.60
2018-09-11T14:29:28.831Z,28.90
2018-09-11T14:31:57.183Z,28.90
2018-09-11T14:34:25.528Z,28.80
2018-09-11T14:36:53.875Z,28.90
2018-09-11T14:39:22.195Z,29.00
2018-09-11T14:41:50.553Z,28.90
2018-09-11T14:44:18.872Z,28.90
2018-09-11T14:46:47.212Z,29.00
2018-09-11T14:49:15.532Z,29.00
2018-09-11T14:51:43.877Z,29.20
2018-09-11T14:54:12.191Z,29.00
2018-09-11T14:56:40.536Z,28.70
2018-09-11T14:59:08.866Z,28.30
2018-09-11T15:01:37.207Z,28.00
2018-09-11T15:04:05.572Z,27.80
2018-09-11T15:06:33.892Z,27.60
2018-09-11T15:09:02.379Z,27.40
2018-09-11T15:11:30.664Z,27.20
2018-09-11T15:13:59.015Z,27.00
2018-09-11T15:16:27.691Z,26.90
2018-09-11T15:18:56.035Z,26.80
2018-09-11T15:21:24.363Z,26.70
2018-09-11T15:23:52.728Z,26.60
2018-09-11T15:26:21.040Z,26.60
2018-09-11T15:28:49.496Z,26.50
2018-09-11T15:31:17.813Z,26.40
2018-09-11T15:33:46.203Z,26.40
2018-09-11T15:36:14.516Z,26.30
2018-09-11T15:38:42.864Z,26.20
2018-09-11T15:41:11.203Z,26.10
2018-09-11T15:43:40.032Z,26.10
2018-09-11T15:46:08.348Z,26.00
2018-09-11T15:48:36.690Z,26.00
2018-09-11T15:51:05.010Z,26.00
2018-09-11T15:53:33.348Z,26.00
2018-09-11T15:56:01.668Z,26.00
2018-09-11T15:58:30.046Z,26.00
2018-09-11T16:00:58.363Z,26.00
2018-09-11T16:03:26.710Z,25.90
2018-09-11T16:05:55.035Z,25.80
2018-09-11T16:08:23.420Z,25.80
2018-09-11T16:10:51.742Z,25.80
2018-09-11T16:13:20.107Z,25.70
2018-09-11T16:15:48.448Z,25.70
2018-09-11T16:18:16.798Z,25.60
2018-09-11T16:20:45.123Z,25.60
2018-09-11T16:23:13.466Z,25.60
2018-09-11T16:25:41.799Z,25.60
2018-09-11T16:28:10.198Z,25.60
2018-09-11T16:30:38.581Z,25.60
2018-09-11T16:33:06.968Z,25.60
2018-09-11T16:35:35.311Z,25.50
2018-09-11T16:38:03.660Z,25.50
2018-09-11T16:40:31.980Z,25.50
2018-09-11T16:43:00.324Z,25.50
2018-09-11T16:45:28.644Z,25.40
2018-09-11T16:47:56.999Z,25.40
2018-09-11T16:50:25.319Z,25.40
2018-09-11T16:52:53.660Z,25.40
2018-09-11T16:55:22.016Z,25.40
2018-09-11T16:57:50.332Z,25.40
2018-09-11T17:00:18.684Z,25.30
2018-09-11T17:02:46.995Z,25.30
2018-09-11T17:05:15.336Z,25.20
2018-09-11T17:07:43.655Z,25.20
2018-09-11T17:10:12.152Z,25.20
2018-09-11T17:12:40.513Z,25.10
2018-09-11T17:15:08.856Z,25.10
2018-09-11T17:17:37.174Z,25.10
2018-09-11T17:20:05.587Z,25.00
2018-09-11T17:22:33.886Z,25.00
2018-09-11T17:25:02.255Z,25.00
2018-09-11T17:27:30.602Z,25.00
2018-09-11T17:29:58.971Z,25.00
2018-09-11T17:32:27.317Z,24.90
2018-09-11T17:34:55.660Z,24.90
2018-09-11T17:37:24.024Z,24.90
2018-09-11T17:39:52.376Z,24.90
2018-09-11T17:42:20.734Z,24.90
2018-09-11T17:44:49.092Z,24.80
2018-09-11T17:47:17.435Z,24.80
2018-09-11T17:49:45.796Z,24.80
2018-09-11T17:52:14.116Z,24.80
2018-09-11T17:54:42.561Z,24.80
2018-09-11T17:57:10.878Z,24.80
2018-09-11T17:59:39.224Z,24.70
2018-09-11T18:02:07.798Z,24.70
2018-09-11T18:04:36.137Z,24.70
2018-09-11T18:07:04.469Z,24.70
2018-09-11T18:09:32.835Z,24.60
2018-09-11T18:12:01.333Z,24.60
2018-09-11T18:14:29.682Z,24.60
2018-09-11T18:16:58.014Z,24.60
2018-09-11T18:19:26.341Z,24.50
2018-09-11T18:21:54.689Z,24.50
2018-09-11T18:24:23.048Z,24.50
2018-09-11T18:26:51.404Z,24.50
2018-09-11T18:29:20.358Z,24.50
2018-09-11T18:31:51.643Z,24.40
2018-09-11T18:34:23.113Z,24.40
2018-09-11T18:36:52.201Z,24.40
2018-09-11T18:39:21.171Z,24.40
2018-09-11T18:41:49.797Z,24.40
2018-09-11T18:44:18.561Z,24.30
2018-09-11T18:46:47.307Z,24.30
2018-09-11T18:49:18.294Z,24.30
2018-09-11T18:51:47.142Z,24.30
2018-09-11T18:54:15.738Z,24.30
2018-09-11T18:56:44.956Z,24.30
2018-09-11T18:59:13.771Z,24.30
2018-09-11T19:01:42.752Z,24.30
2018-09-11T19:04:11.071Z,24.30
2018-09-11T19:06:39.439Z,24.20
2018-09-11T19:09:09.109Z,24.20
2018-09-11T19:11:38.103Z,24.20
2018-09-11T19:14:06.689Z,24.20
2018-09-11T19:16:35.306Z,24.20
2018-09-11T19:19:03.645Z,24.20
2018-09-11T19:21:32.052Z,24.10
2018-09-11T19:24:00.538Z,24.10
2018-09-11T19:26:28.915Z,24.10
2018-09-11T19:28:57.297Z,24.10
2018-09-11T19:31:25.658Z,24.10
2018-09-11T19:33:54.087Z,24.10
2018-09-11T19:36:22.675Z,24.10
2018-09-11T19:38:51.007Z,24.10
2018-09-11T19:41:19.385Z,24.00
2018-09-11T19:43:47.714Z,24.00
2018-09-11T19:46:16.122Z,24.00
2018-09-11T19:48:44.543Z,24.00
2018-09-11T19:51:12.910Z,23.90
2018-09-11T19:53:41.296Z,23.90
2018-09-11T19:56:09.712Z,23.80
2018-09-11T19:58:38.069Z,23.80
2018-09-11T20:01:06.399Z,23.80
2018-09-11T20:03:34.744Z,23.70
2018-09-11T20:06:03.066Z,23.70
2018-09-11T20:08:31.403Z,23.70
2018-09-11T20:10:59.720Z,23.70
2018-09-11T20:13:28.059Z,23.60
2018-09-11T20:15:56.388Z,23.60
2018-09-11T20:18:24.907Z,23.60
2018-09-11T20:20:53.236Z,23.60
2018-09-11T20:23:21.628Z,23.50
2018-09-11T20:25:50.802Z,23.50
2018-09-11T20:28:19.535Z,23.40
2018-09-11T20:30:47.884Z,23.40
2018-09-11T20:33:16.245Z,23.40
2018-09-11T20:35:44.571Z,23.40
2018-09-11T20:38:12.929Z,23.30
2018-09-11T20:40:41.248Z,23.30
2018-09-11T20:43:09.599Z,23.20
2018-09-11T20:45:37.961Z,23.20
2018-09-11T20:48:06.300Z,23.10
2018-09-11T20:50:34.625Z,23.10
2018-09-11T20:53:02.978Z,23.10
2018-09-11T20:55:31.292Z,23.00
2018-09-11T20:58:00.339Z,23.00
2018-09-11T21:03:13.813Z,22.90
2018-09-11T21:05:42.147Z,22.90
2018-09-11T21:08:10.492Z,22.80
2018-09-11T21:10:38.828Z,22.80
2018-09-11T21:13:07.248Z,22.80
2018-09-11T21:15:35.567Z,22.70
2018-09-11T21:18:03.923Z,22.70
2018-09-11T21:20:32.292Z,22.70
2018-09-11T21:23:00.691Z,22.60
2018-09-11T21:25:29.005Z,22.60
2018-09-11T21:27:57.348Z,22.60
2018-09-11T21:30:25.765Z,22.50
2018-09-11T21:32:54.091Z,22.50
2018-09-11T21:35:22.432Z,22.40
2018-09-11T21:37:50.863Z,22.40
2018-09-11T21:40:19.204Z,22.40
2018-09-11T21:42:47.540Z,22.40
2018-09-11T21:45:15.859Z,22.30
2018-09-11T21:47:44.232Z,22.30
2018-09-11T21:50:12.549Z,22.30
2018-09-11T21:52:40.868Z,22.30
2018-09-11T21:55:09.211Z,22.20
2018-09-11T21:57:37.511Z,22.20
2018-09-11T22:00:08.601Z,22.20
2018-09-11T22:02:36.984Z,22.10
2018-09-11T22:05:05.796Z,22.10
2018-09-11T22:07:34.120Z,22.00
2018-09-11T22:10:02.484Z,22.00
2018-09-11T22:12:30.801Z,22.00
2018-09-11T22:14:59.137Z,22.00
2018-09-11T22:17:27.468Z,22.00
2018-09-11T22:19:55.800Z,22.00
2018-09-11T22:22:24.299Z,22.00
2018-09-11T22:24:52.646Z,22.00
2018-09-11T22:27:20.981Z,22.00
2018-09-11T22:29:49.331Z,22.00
2018-09-11T22:32:17.631Z,22.00
2018-09-11T22:34:45.970Z,22.00
2018-09-11T22:37:14.296Z,22.00
2018-09-11T22:39:42.620Z,22.10
2018-09-11T22:42:10.931Z,22.00
2018-09-11T22:44:39.260Z,22.00
2018-09-11T22:47:07.600Z,22.10
2018-09-11T22:49:35.951Z,22.00
2018-09-11T22:52:04.259Z,22.10
2018-09-11T22:54:32.589Z,22.00
2018-09-11T22:57:00.928Z,22.10
2018-09-11T22:59:29.264Z,22.00
2018-09-11T23:01:57.688Z,22.00
2018-09-11T23:04:26.008Z,22.10
2018-09-11T23:06:54.307Z,22.00
2018-09-11T23:09:22.636Z,22.00
2018-09-11T23:11:50.987Z,22.00
2018-09-11T23:14:19.332Z,22.00
2018-09-11T23:16:47.659Z,22.00
2018-09-11T23:19:16.015Z,22.00
2018-09-11T23:21:44.319Z,22.00
2018-09-11T23:24:12.660Z,22.00
2018-09-11T23:26:40.990Z,21.90
2018-09-11T23:29:09.348Z,22.00
2018-09-11T23:31:37.664Z,21.90
2018-09-11T23:34:06.052Z,21.90
2018-09-11T23:36:34.366Z,21.90
2018-09-11T23:39:02.719Z,21.90
2018-09-11T23:41:31.069Z,21.90
2018-09-11T23:43:59.382Z,21.90
2018-09-11T23:46:27.812Z,21.90
2018-09-11T23:48:56.113Z,21.80
2018-09-11T23:51:24.459Z,21.80
2018-09-11T23:53:52.767Z,21.80
2018-09-11T23:56:21.108Z,21.80
2018-09-11T23:58:49.434Z,21.70
